createdAt,value
2023-10-16T00:00:42.065Z,45.48
2023-10-16T00:03:19.059Z,46.70
2023-10-16T00:05:53.048Z,47.03
2023-10-16T00:08:26.285Z,49.44
2023-10-16T00:11:02.503Z,47.71
2023-10-16T00:13:40.807Z,47.05
2023-10-16T00:16:17.735Z,49.46
2023-10-16T00:18:52.196Z,49.66
2023-10-16T00:21:26.430Z,49.46
2023-10-16T00:23:59.907Z,51.13
2023-10-16T00:26:33.209Z,50.03
2023-10-16T00:29:18.507Z,49.72
2023-10-16T00:31:54.332Z,50.39
2023-10-16T00:34:27.874Z,53.29
2023-10-16T00:37:03.017Z,55.30
2023-10-16T00:39:38.555Z,55.69
2023-10-16T00:42:12.340Z,54.82
2023-10-16T00:44:48.556Z,58.56
2023-10-16T00:47:21.820Z,55.08
2023-10-16T00:49:55.620Z,55.28
2023-10-16T00:52:28.849Z,58.86
2023-10-16T00:55:02.100Z,55.89
2023-10-16T00:57:36.306Z,53.84
2023-10-16T01:00:13.829Z,55.57
2023-10-16T01:02:47.191Z,55.74
2023-10-16T01:05:25.099Z,56.09
2023-10-16T01:07:59.379Z,60.07
2023-10-16T01:10:33.711Z,59.19
2023-10-16T01:13:10.545Z,61.76
2023-10-16T01:15:48.204Z,63.54
2023-10-16T01:18:21.539Z,70.08
2023-10-16T01:20:54.748Z,66.46
2023-10-16T01:23:29.321Z,59.54
2023-10-16T01:26:03.110Z,57.57
2023-10-16T01:28:36.368Z,56.17
2023-10-16T01:31:09.737Z,57.27
2023-10-16T01:33:45.796Z,54.46
2023-10-16T01:36:19.303Z,55.69
2023-10-16T01:38:53.940Z,56.35
2023-10-16T01:41:27.152Z,55.60
2023-10-16T01:44:04.511Z,56.61
2023-10-16T01:46:37.890Z,57.29
2023-10-16T01:49:11.587Z,57.07
2023-10-16T01:51:45.433Z,58.69
2023-10-16T01:54:23.918Z,58.31
2023-10-16T01:56:57.345Z,56.62
2023-10-16T01:59:30.542Z,56.56
2023-10-16T02:02:03.819Z,54.78
2023-10-16T02:04:38.478Z,56.39
2023-10-16T02:07:13.275Z,57.30
2023-10-16T02:09:48.343Z,56.72
2023-10-16T02:12:21.512Z,55.58
2023-10-16T02:14:55.204Z,55.03
2023-10-16T02:17:28.447Z,57.19
2023-10-16T02:20:12.379Z,54.43
2023-10-16T02:22:47.029Z,56.98
2023-10-16T02:25:24.648Z,57.76
2023-10-16T02:27:57.858Z,59.40
2023-10-16T02:30:36.616Z,57.61
2023-10-16T02:33:19.804Z,58.58
2023-10-16T02:35:54.637Z,57.78
2023-10-16T02:38:30.160Z,58.54
2023-10-16T02:41:05.764Z,59.23
2023-10-16T02:43:42.669Z,61.32
2023-10-16T02:46:19.753Z,63.15
2023-10-16T02:48:53.908Z,59.58
2023-10-16T02:51:27.183Z,61.87
2023-10-16T02:54:01.934Z,57.72
2023-10-16T02:56:37.631Z,62.69
2023-10-16T02:59:10.789Z,60.57
2023-10-16T03:01:46.522Z,59.91
2023-10-16T03:04:20.045Z,57.99
2023-10-16T03:06:55.809Z,57.93
2023-10-16T03:09:30.097Z,59.31
2023-10-16T03:12:09.728Z,58.28
2023-10-16T03:14:57.671Z,59.24
2023-10-16T03:17:36.404Z,56.56
2023-10-16T03:20:18.075Z,55.52
2023-10-16T03:22:52.859Z,57.33
2023-10-16T03:25:49.737Z,58.14
2023-10-16T03:28:24.273Z,57.15
2023-10-16T03:31:03.898Z,55.58
2023-10-16T03:33:37.350Z,55.60
2023-10-16T03:36:10.649Z,56.59
2023-10-16T03:38:44.137Z,55.32
2023-10-16T03:41:29.018Z,57.06
2023-10-16T03:44:15.378Z,56.65
2023-10-16T03:46:50.543Z,55.43
2023-10-16T03:49:24.269Z,54.97
2023-10-16T03:51:57.462Z,53.56
2023-10-16T03:54:32.628Z,55.72
2023-10-16T03:57:11.235Z,52.62
2023-10-16T03:59:48.581Z,53.27
2023-10-16T04:02:24.143Z,53.26
2023-10-16T04:04:59.375Z,56.07
2023-10-16T04:07:32.713Z,54.06
2023-10-16T04:10:22.862Z,54.83
2023-10-16T04:12:56.503Z,53.24
2023-10-16T04:16:01.101Z,56.81
2023-10-16T04:18:34.380Z,53.65
2023-10-16T04:21:29.670Z,56.52
2023-10-16T04:24:06.151Z,54.47
2023-10-16T04:26:58.523Z,55.65
2023-10-16T04:29:31.232Z,54.10
2023-10-16T04:32:20.909Z,57.02
2023-10-16T04:34:54.213Z,56.48
2023-10-16T04:37:38.394Z,60.46
2023-10-16T04:40:44.725Z,54.54
2023-10-16T04:43:38.711Z,56.23
2023-10-16T04:46:21.965Z,55.24
2023-10-16T04:48:56.212Z,54.57
2023-10-16T04:51:52.776Z,52.33
2023-10-16T04:54:29.594Z,54.16
2023-10-16T04:57:25.668Z,56.92
2023-10-16T05:00:13.675Z,54.84
2023-10-16T05:02:53.814Z,54.79
2023-10-16T05:05:47.147Z,54.63
2023-10-16T05:08:32.556Z,53.08
2023-10-16T05:11:23.229Z,56.67
2023-10-16T05:14:20.680Z,55.28
2023-10-16T05:17:08.362Z,56.59
2023-10-16T05:19:48.264Z,56.02
2023-10-16T05:22:40.665Z,57.77
2023-10-16T05:25:31.350Z,61.31
2023-10-16T05:28:22.353Z,60.45
2023-10-16T05:31:15.346Z,60.54
2023-10-16T05:34:06.250Z,58.67
2023-10-16T05:36:56.780Z,53.80
2023-10-16T05:39:49.241Z,55.47
2023-10-16T05:42:39.749Z,52.55
2023-10-16T05:45:30.242Z,54.22
2023-10-16T05:48:20.833Z,56.40
2023-10-16T05:51:11.363Z,56.51
2023-10-16T05:54:02.236Z,55.70
2023-10-16T05:56:54.022Z,53.40
2023-10-16T05:59:44.487Z,50.10
2023-10-16T06:02:34.902Z,50.59
2023-10-16T06:05:25.965Z,50.02
2023-10-16T06:08:16.393Z,57.44
2023-10-16T06:11:06.966Z,57.04
2023-10-16T06:13:59.124Z,54.13
2023-10-16T06:16:32.429Z,52.40
2023-10-16T06:19:08.901Z,50.71
2023-10-16T06:21:49.415Z,55.05
2023-10-16T06:24:34.238Z,56.91
2023-10-16T06:27:11.858Z,55.02
2023-10-16T06:29:51.023Z,57.20
2023-10-16T06:32:27.150Z,56.48
2023-10-16T06:35:02.571Z,54.06
2023-10-16T06:37:39.722Z,54.35
2023-10-16T06:40:18.462Z,53.52
2023-10-16T06:42:55.411Z,51.58
2023-10-16T06:45:41.770Z,49.81
2023-10-16T06:48:17.182Z,48.01
2023-10-16T06:50:55.573Z,48.78
2023-10-16T06:53:31.355Z,49.48
2023-10-16T06:56:04.894Z,48.01
2023-10-16T06:58:38.038Z,51.56
2023-10-16T07:01:20.724Z,53.44
2023-10-16T07:03:55.801Z,56.11
2023-10-16T07:06:33.939Z,53.55
2023-10-16T07:09:09.811Z,56.67
2023-10-16T07:11:44.546Z,54.23
2023-10-16T07:14:19.740Z,54.34
2023-10-16T07:16:54.330Z,51.80
2023-10-16T07:19:27.502Z,54.06
2023-10-16T07:22:02.050Z,52.37
2023-10-16T07:24:36.321Z,52.72
2023-10-16T07:27:13.698Z,54.41
2023-10-16T07:29:46.878Z,54.12
2023-10-16T07:32:23.051Z,59.81
2023-10-16T07:34:56.185Z,60.81
2023-10-16T07:37:29.345Z,53.91
2023-10-16T07:40:02.570Z,53.75
2023-10-16T07:42:36.738Z,54.16
2023-10-16T07:45:11.134Z,55.80
2023-10-16T07:47:46.062Z,55.74
2023-10-16T07:50:20.345Z,56.15
2023-10-16T07:52:53.502Z,55.86
2023-10-16T07:55:40.265Z,56.11
2023-10-16T07:58:24.401Z,60.95
2023-10-16T08:01:18.799Z,57.42
2023-10-16T08:03:53.713Z,58.20
2023-10-16T08:06:27.065Z,55.58
2023-10-16T08:09:14.535Z,56.36
2023-10-16T08:11:54.152Z,54.46
2023-10-16T08:14:28.915Z,59.50
2023-10-16T08:17:05.939Z,58.80
2023-10-16T08:19:40.910Z,60.67
2023-10-16T08:22:15.716Z,57.15
2023-10-16T08:25:00.008Z,61.49
2023-10-16T08:27:46.300Z,56.60
2023-10-16T08:30:34.466Z,55.58
2023-10-16T08:33:11.049Z,51.91
2023-10-16T08:35:46.463Z,52.91
2023-10-16T08:38:22.318Z,51.28
2023-10-16T08:41:01.313Z,47.41
2023-10-16T08:43:54.523Z,51.14
2023-10-16T08:46:33.136Z,40.32
2023-10-16T08:49:10.307Z,34.29
2023-10-16T08:51:45.011Z,33.85
2023-10-16T08:54:36.205Z,31.91
2023-10-16T08:57:12.779Z,30.15
2023-10-16T08:59:50.407Z,28.81
2023-10-16T09:02:27.612Z,31.98
2023-10-16T09:05:01.729Z,34.70
2023-10-16T09:07:41.130Z,37.23
2023-10-16T09:10:16.645Z,37.09
2023-10-16T09:12:55.639Z,40.06
2023-10-16T09:15:28.964Z,43.57
2023-10-16T09:18:02.239Z,41.09
2023-10-16T09:20:42.152Z,52.11
2023-10-16T09:23:17.746Z,48.42
2023-10-16T09:25:56.560Z,38.21
2023-10-16T09:28:33.700Z,35.52
2023-10-16T09:31:12.545Z,32.35
2023-10-16T09:33:49.477Z,112.46
2023-10-16T09:36:23.042Z,102.90
2023-10-16T09:39:01.632Z,37.73
2023-10-16T09:41:43.584Z,89.74
2023-10-16T09:44:24.704Z,91.20
2023-10-16T09:46:58.220Z,26.51
2023-10-16T09:49:34.868Z,43.65
2023-10-16T09:52:08.539Z,40.22
2023-10-16T09:54:43.241Z,31.27
2023-10-16T09:57:23.653Z,35.74
2023-10-16T10:00:01.743Z,24.22
2023-10-16T10:02:52.579Z,22.62
2023-10-16T10:05:35.874Z,19.18
2023-10-16T10:08:18.831Z,19.46
2023-10-16T10:11:28.871Z,14.73
2023-10-16T10:14:10.979Z,17.14
2023-10-16T10:16:51.555Z,16.55
2023-10-16T10:19:33.495Z,16.52
2023-10-16T10:22:18.428Z,19.17
2023-10-16T10:25:19.779Z,16.22
2023-10-16T10:28:10.684Z,14.19
2023-10-16T10:30:46.661Z,14.37
2023-10-16T10:33:38.723Z,15.50
2023-10-16T10:36:31.358Z,15.55
2023-10-16T10:39:40.763Z,15.36
2023-10-16T10:42:25.945Z,17.03
2023-10-16T10:45:22.405Z,15.01
2023-10-16T10:47:57.756Z,15.22
2023-10-16T10:50:34.050Z,14.97
2023-10-16T10:53:15.850Z,18.29
2023-10-16T10:55:57.286Z,17.03
2023-10-16T10:58:34.421Z,16.73
2023-10-16T11:01:27.701Z,15.64
2023-10-16T11:04:03.152Z,16.92
2023-10-16T11:06:43.816Z,13.00
2023-10-16T11:09:19.977Z,13.95
2023-10-16T11:11:55.959Z,13.04
2023-10-16T11:14:36.464Z,11.93
2023-10-16T11:17:11.063Z,12.11
2023-10-16T11:19:48.669Z,11.20
2023-10-16T11:22:24.973Z,13.73
2023-10-16T11:24:58.310Z,12.25
2023-10-16T11:27:35.702Z,10.93
2023-10-16T11:30:12.723Z,11.48
2023-10-16T11:32:51.092Z,13.53
2023-10-16T11:35:28.027Z,13.18
2023-10-16T11:38:05.540Z,11.11
2023-10-16T11:40:43.331Z,10.88
2023-10-16T11:43:20.460Z,18.65
2023-10-16T11:45:58.120Z,12.78
2023-10-16T11:48:40.901Z,10.92
2023-10-16T11:51:16.516Z,12.01
2023-10-16T11:53:49.673Z,10.59
2023-10-16T11:56:22.877Z,12.06
2023-10-16T11:58:56.436Z,10.72
2023-10-16T12:01:37.862Z,11.40
2023-10-16T12:04:21.495Z,15.45
2023-10-16T12:06:55.626Z,15.85
2023-10-16T12:09:38.055Z,19.37
2023-10-16T12:12:20.783Z,30.10
2023-10-16T12:14:54.716Z,14.34
2023-10-16T12:17:29.677Z,14.47
2023-10-16T12:20:10.437Z,18.24
2023-10-16T12:22:45.280Z,18.00
2023-10-16T12:25:19.727Z,16.53
2023-10-16T12:27:53.209Z,14.55
2023-10-16T12:30:28.968Z,14.93
2023-10-16T12:33:02.239Z,13.17
2023-10-16T12:35:37.064Z,14.14
2023-10-16T12:38:11.737Z,11.70
2023-10-16T12:40:44.927Z,15.86
2023-10-16T12:43:18.060Z,14.32
2023-10-16T12:45:52.271Z,19.65
2023-10-16T12:48:29.213Z,21.76
2023-10-16T12:51:11.919Z,17.71
2023-10-16T12:53:46.737Z,45.58
2023-10-16T12:56:22.185Z,40.42
2023-10-16T12:58:55.383Z,27.33
2023-10-16T13:01:28.840Z,17.86
2023-10-16T13:04:02.263Z,16.88
2023-10-16T13:06:37.084Z,12.46
2023-10-16T13:09:16.931Z,11.65
2023-10-16T13:11:50.210Z,13.25
2023-10-16T13:14:26.510Z,11.34
2023-10-16T13:16:59.914Z,10.03
2023-10-16T13:19:33.115Z,11.66
2023-10-16T13:22:12.304Z,10.97
2023-10-16T13:24:45.682Z,12.61
2023-10-16T13:27:21.771Z,13.12
2023-10-16T13:29:54.986Z,13.29
2023-10-16T13:32:29.294Z,14.19
2023-10-16T13:35:13.364Z,11.39
2023-10-16T13:37:49.691Z,10.67
2023-10-16T13:40:23.047Z,11.09
2023-10-16T13:43:01.611Z,9.41
2023-10-16T13:45:35.250Z,9.28
2023-10-16T13:48:11.304Z,11.09
2023-10-16T13:50:48.816Z,26.49
2023-10-16T13:53:23.508Z,19.88
2023-10-16T13:55:57.281Z,12.96
2023-10-16T13:58:30.579Z,11.29
2023-10-16T14:01:04.025Z,11.06
2023-10-16T14:03:37.265Z,9.03
2023-10-16T14:06:17.440Z,9.52
2023-10-16T14:08:54.428Z,9.81
2023-10-16T14:11:34.980Z,10.47
2023-10-16T14:14:11.276Z,10.75
2023-10-16T14:16:47.963Z,13.30
2023-10-16T14:19:23.754Z,14.09
2023-10-16T14:21:58.771Z,11.21
2023-10-16T14:24:35.419Z,12.31
2023-10-16T14:27:08.639Z,10.26
2023-10-16T14:29:46.502Z,11.89
2023-10-16T14:32:21.161Z,11.52
2023-10-16T14:34:54.359Z,12.30
2023-10-16T14:37:27.571Z,12.33
2023-10-16T14:40:05.804Z,13.46
2023-10-16T14:42:40.716Z,14.40
2023-10-16T14:45:13.908Z,16.22
2023-10-16T14:47:48.605Z,18.06
2023-10-16T14:50:25.543Z,18.96
2023-10-16T14:52:58.680Z,45.59
2023-10-16T14:55:33.777Z,42.49
2023-10-16T14:58:19.241Z,18.16
2023-10-16T15:01:02.233Z,16.71
2023-10-16T15:03:39.608Z,17.00
2023-10-16T15:06:14.207Z,19.29
2023-10-16T15:08:48.574Z,20.30
2023-10-16T15:11:23.517Z,22.21
2023-10-16T15:13:57.160Z,21.32
2023-10-16T15:16:30.580Z,22.94
2023-10-16T15:19:09.058Z,22.37
2023-10-16T15:21:43.246Z,23.25
2023-10-16T15:24:16.404Z,23.44
2023-10-16T15:26:51.001Z,24.69
2023-10-16T15:29:24.195Z,25.49
2023-10-16T15:31:57.989Z,25.99
2023-10-16T15:34:31.399Z,24.93
2023-10-16T15:37:05.926Z,24.56
2023-10-16T15:39:41.763Z,24.23
2023-10-16T15:42:16.289Z,26.36
2023-10-16T15:44:51.700Z,24.80
2023-10-16T15:47:27.490Z,25.76
2023-10-16T15:50:02.978Z,23.71
2023-10-16T15:52:36.355Z,26.19
2023-10-16T15:55:09.815Z,26.22
2023-10-16T15:57:47.355Z,29.61
2023-10-16T16:00:27.019Z,29.64
2023-10-16T16:03:01.435Z,32.52
2023-10-16T16:05:35.564Z,34.25
2023-10-16T16:08:10.313Z,32.28
2023-10-16T16:10:43.646Z,32.12
2023-10-16T16:13:18.367Z,32.17
2023-10-16T16:15:51.619Z,33.17
2023-10-16T16:18:24.892Z,33.01
2023-10-16T16:20:58.056Z,34.77
2023-10-16T16:23:31.206Z,35.16
2023-10-16T16:26:04.846Z,39.51
2023-10-16T16:28:40.564Z,39.77
2023-10-16T16:31:17.303Z,37.30
2023-10-16T16:33:52.267Z,39.34
2023-10-16T16:36:26.182Z,40.98
2023-10-16T16:38:59.888Z,39.34
2023-10-16T16:41:35.539Z,39.55
2023-10-16T16:44:10.663Z,39.08
2023-10-16T16:46:45.412Z,37.46
2023-10-16T16:49:19.144Z,39.81
2023-10-16T16:51:52.236Z,38.18
2023-10-16T16:54:27.934Z,39.35
2023-10-16T16:57:01.092Z,42.95
2023-10-16T16:59:36.838Z,43.84
2023-10-16T17:02:10.951Z,38.09
2023-10-16T17:04:45.359Z,42.70
2023-10-16T17:07:18.561Z,41.10
2023-10-16T17:09:51.842Z,43.66
2023-10-16T17:12:25.090Z,46.09
2023-10-16T17:15:02.703Z,50.08
2023-10-16T17:17:36.280Z,50.48
2023-10-16T17:20:13.043Z,47.93
2023-10-16T17:23:05.366Z,49.55
2023-10-16T17:25:41.563Z,51.59
2023-10-16T17:28:17.991Z,54.69
2023-10-16T17:30:52.666Z,61.07
2023-10-16T17:33:26.520Z,61.82
2023-10-16T17:36:03.434Z,64.41
2023-10-16T17:38:37.433Z,66.02
2023-10-16T17:41:10.580Z,71.48
2023-10-16T17:43:43.741Z,70.90
2023-10-16T17:46:18.359Z,74.04
2023-10-16T17:48:51.619Z,72.66
2023-10-16T17:51:26.469Z,76.32
2023-10-16T17:53:59.811Z,77.60
2023-10-16T17:56:34.285Z,78.85
2023-10-16T17:59:07.458Z,78.26
2023-10-16T18:01:42.600Z,82.35
2023-10-16T18:04:15.828Z,79.00
2023-10-16T18:06:52.086Z,75.63
2023-10-16T18:09:25.760Z,75.89
2023-10-16T18:12:04.886Z,76.26
2023-10-16T18:14:39.735Z,78.87
2023-10-16T18:17:14.294Z,75.84
2023-10-16T18:19:50.290Z,83.75
2023-10-16T18:22:25.889Z,83.30
2023-10-16T18:24:59.060Z,86.38
2023-10-16T18:27:33.419Z,91.37
2023-10-16T18:30:11.236Z,88.17
2023-10-16T18:32:46.583Z,86.25
2023-10-16T18:35:19.933Z,81.86
2023-10-16T18:37:53.146Z,85.13
2023-10-16T18:40:26.362Z,80.94
2023-10-16T18:42:59.681Z,81.47
2023-10-16T18:45:36.049Z,87.78
2023-10-16T18:48:11.234Z,88.92
2023-10-16T18:50:44.489Z,96.81
2023-10-16T18:53:17.708Z,95.15
2023-10-16T18:55:52.401Z,94.72
2023-10-16T18:58:26.120Z,93.11
2023-10-16T19:01:05.364Z,93.05
2023-10-16T19:03:40.047Z,98.86
2023-10-16T19:06:13.798Z,106.12
2023-10-16T19:08:47.117Z,101.08
2023-10-16T19:11:20.909Z,100.82
2023-10-16T19:13:55.250Z,94.01
2023-10-16T19:16:28.561Z,83.14
2023-10-16T19:19:03.353Z,83.13
2023-10-16T19:21:39.148Z,80.38
2023-10-16T19:24:14.698Z,81.85
2023-10-16T19:26:47.959Z,80.10
2023-10-16T19:29:21.208Z,80.81
2023-10-16T19:31:54.913Z,77.90
2023-10-16T19:34:30.159Z,77.27
2023-10-16T19:37:03.377Z,70.87
2023-10-16T19:39:36.734Z,69.49
2023-10-16T19:42:11.454Z,70.65
2023-10-16T19:44:44.719Z,72.29
2023-10-16T19:47:17.961Z,74.51
2023-10-16T19:49:52.568Z,79.92
2023-10-16T19:52:26.448Z,75.46
2023-10-16T19:54:59.590Z,73.20
2023-10-16T19:57:32.911Z,76.98
2023-10-16T20:00:18.047Z,71.51
2023-10-16T20:02:52.048Z,75.53
2023-10-16T20:05:27.178Z,75.35
2023-10-16T20:08:02.315Z,67.29
2023-10-16T20:10:37.305Z,67.60
2023-10-16T20:13:11.276Z,72.16
2023-10-16T20:15:47.534Z,71.37
2023-10-16T20:18:21.157Z,67.94
2023-10-16T20:21:02.883Z,64.89
2023-10-16T20:23:37.399Z,64.00
2023-10-16T20:26:17.031Z,61.18
2023-10-16T20:28:51.081Z,58.19
2023-10-16T20:31:25.929Z,59.93
2023-10-16T20:34:00.452Z,62.84
2023-10-16T20:36:36.706Z,60.10
2023-10-16T20:39:10.936Z,58.55
2023-10-16T20:41:44.242Z,58.18
2023-10-16T20:44:17.378Z,58.05
2023-10-16T20:46:51.428Z,56.60
2023-10-16T20:49:24.680Z,55.26
2023-10-16T20:51:59.473Z,57.39
2023-10-16T20:54:32.753Z,56.67
2023-10-16T20:57:06.445Z,59.74
2023-10-16T20:59:39.625Z,63.60
2023-10-16T21:02:13.226Z,63.14
2023-10-16T21:04:46.591Z,61.49
2023-10-16T21:07:21.226Z,63.47
2023-10-16T21:09:54.511Z,62.85
2023-10-16T21:12:27.790Z,67.26
2023-10-16T21:15:01.074Z,64.68
2023-10-16T21:17:34.435Z,64.69
2023-10-16T21:20:10.776Z,63.96
2023-10-16T21:22:47.185Z,65.11
2023-10-16T21:25:22.863Z,63.78
2023-10-16T21:27:56.085Z,63.74
2023-10-16T21:30:29.826Z,68.30
2023-10-16T21:33:03.778Z,73.28
2023-10-16T21:35:39.328Z,67.81
2023-10-16T21:38:13.838Z,68.79
2023-10-16T21:40:47.092Z,71.16
2023-10-16T21:43:20.651Z,70.25
2023-10-16T21:45:56.304Z,69.43
2023-10-16T21:48:29.689Z,69.54
2023-10-16T21:51:03.641Z,75.69
2023-10-16T21:53:39.104Z,73.80
2023-10-16T21:56:12.281Z,78.38
2023-10-16T21:58:45.865Z,77.45
2023-10-16T22:01:19.415Z,76.44
2023-10-16T22:03:54.284Z,77.68
2023-10-16T22:06:31.978Z,79.53
2023-10-16T22:09:11.190Z,77.14
2023-10-16T22:11:46.522Z,80.78
2023-10-16T22:14:21.155Z,79.53
2023-10-16T22:16:55.959Z,78.94
2023-10-16T22:19:31.230Z,83.53
2023-10-16T22:22:08.259Z,82.93
2023-10-16T22:24:43.394Z,82.45
2023-10-16T22:27:17.363Z,82.16
2023-10-16T22:29:50.712Z,84.81
2023-10-16T22:32:24.171Z,81.28
2023-10-16T22:34:57.327Z,84.77
2023-10-16T22:37:30.572Z,84.68
2023-10-16T22:40:09.335Z,82.44
2023-10-16T22:42:42.706Z,79.76
2023-10-16T22:45:16.875Z,83.40
2023-10-16T22:47:52.750Z,80.11
2023-10-16T22:50:26.177Z,82.61
2023-10-16T22:53:00.035Z,77.47
2023-10-16T22:55:37.007Z,81.85
2023-10-16T22:58:10.270Z,86.00
2023-10-16T23:00:44.358Z,86.00
2023-10-16T23:03:36.636Z,89.63
2023-10-16T23:06:11.186Z,88.41
2023-10-16T23:08:53.470Z,95.36
2023-10-16T23:11:50.449Z,93.48
2023-10-16T23:14:23.743Z,94.44
2023-10-16T23:17:19.069Z,96.52
2023-10-16T23:19:52.613Z,95.88
2023-10-16T23:22:26.199Z,92.92
2023-10-16T23:24:59.362Z,99.44
2023-10-16T23:27:34.021Z,94.18
2023-10-16T23:30:08.551Z,96.37
2023-10-16T23:32:41.831Z,91.82
2023-10-16T23:35:21.340Z,96.61
2023-10-16T23:37:54.569Z,96.54
2023-10-16T23:40:41.662Z,100.61
2023-10-16T23:43:16.829Z,102.52
2023-10-16T23:45:52.528Z,102.49
2023-10-16T23:48:32.571Z,108.35
2023-10-16T23:51:12.058Z,108.85
2023-10-16T23:53:48.885Z,106.72
2023-10-16T23:56:39.119Z,107.77
2023-10-16T23:59:15.286Z,107.86
